createdAt,value
2023-05-19T00:01:52.533Z,12.10
2023-05-19T00:04:21.323Z,12.00
2023-05-19T00:06:52.131Z,12.00
2023-05-19T00:09:20.727Z,11.90
2023-05-19T00:11:49.440Z,11.90
2023-05-19T00:14:19.672Z,11.80
2023-05-19T00:16:48.884Z,11.80
2023-05-19T00:19:17.761Z,11.70
2023-05-19T00:21:46.013Z,11.70
2023-05-19T00:24:14.295Z,11.70
2023-05-19T00:26:42.569Z,11.70
2023-05-19T00:29:10.750Z,11.60
2023-05-19T00:31:40.437Z,11.60
2023-05-19T00:34:08.662Z,11.60
2023-05-19T00:36:36.864Z,11.50
2023-05-19T00:39:05.183Z,11.50
2023-05-19T00:41:33.442Z,11.40
2023-05-19T00:44:01.593Z,11.30
2023-05-19T00:46:30.475Z,11.30
2023-05-19T00:49:00.081Z,11.30
2023-05-19T00:51:29.750Z,11.30
2023-05-19T00:53:58.005Z,11.30
2023-05-19T00:56:26.541Z,11.30
2023-05-19T00:58:56.052Z,11.20
2023-05-19T01:01:26.845Z,11.20
2023-05-19T01:06:27.866Z,11.20
2023-05-19T01:08:57.427Z,11.20
2023-05-19T01:11:25.623Z,11.20
2023-05-19T01:13:53.980Z,11.20
2023-05-19T01:16:30.927Z,11.10
2023-05-19T01:19:03.983Z,11.10
2023-05-19T01:22:13.851Z,11.10
2023-05-19T01:25:17.707Z,11.10
2023-05-19T01:28:16.018Z,11.10
2023-05-19T01:30:46.596Z,11.00
2023-05-19T01:33:16.312Z,11.00
2023-05-19T01:35:46.642Z,10.90
2023-05-19T01:38:16.719Z,10.90
2023-05-19T01:40:46.227Z,10.90
2023-05-19T01:43:18.185Z,10.80
2023-05-19T01:45:49.117Z,10.80
2023-05-19T01:48:18.973Z,10.80
2023-05-19T01:50:47.922Z,10.70
2023-05-19T01:53:16.287Z,10.70
2023-05-19T01:55:48.217Z,10.70
2023-05-19T01:58:22.490Z,10.70
2023-05-19T02:00:59.359Z,10.70
2023-05-19T02:03:38.586Z,10.60
2023-05-19T02:06:21.829Z,10.60
2023-05-19T02:09:03.897Z,10.60
2023-05-19T02:11:37.887Z,10.60
2023-05-19T02:14:14.883Z,10.60
2023-05-19T02:16:47.071Z,10.60
2023-05-19T02:19:25.303Z,10.70
2023-05-19T02:21:53.586Z,10.60
2023-05-19T02:24:22.965Z,10.60
2023-05-19T02:26:52.193Z,10.60
2023-05-19T02:29:20.483Z,10.60
2023-05-19T02:31:50.406Z,10.60
2023-05-19T02:34:19.049Z,10.60
2023-05-19T02:36:49.816Z,10.60
2023-05-19T02:39:18.040Z,10.60
2023-05-19T02:41:46.290Z,10.60
2023-05-19T02:44:14.445Z,10.50
2023-05-19T02:46:42.733Z,10.50
2023-05-19T02:49:12.491Z,10.50
2023-05-19T02:51:40.689Z,10.40
2023-05-19T02:54:08.911Z,10.40
2023-05-19T02:56:37.084Z,10.40
2023-05-19T02:59:05.260Z,10.40
2023-05-19T03:01:33.809Z,10.30
2023-05-19T03:04:02.358Z,10.40
2023-05-19T03:06:32.869Z,10.30
2023-05-19T03:09:01.051Z,10.30
2023-05-19T03:11:29.677Z,10.30
2023-05-19T03:13:58.051Z,10.20
2023-05-19T03:16:28.152Z,10.20
2023-05-19T03:18:57.352Z,10.20
2023-05-19T03:21:25.815Z,10.20
2023-05-19T03:23:55.870Z,10.20
2023-05-19T03:26:24.657Z,10.10
2023-05-19T03:28:53.010Z,10.10
2023-05-19T03:31:21.221Z,10.10
2023-05-19T03:33:49.492Z,10.10
2023-05-19T03:36:17.676Z,10.10
2023-05-19T03:38:45.854Z,10.00
2023-05-19T03:41:15.449Z,10.00
2023-05-19T03:43:43.646Z,10.00
2023-05-19T03:46:11.890Z,10.00
2023-05-19T03:48:40.077Z,10.00
2023-05-19T03:51:09.088Z,10.00
2023-05-19T03:53:37.991Z,10.10
2023-05-19T03:56:07.599Z,10.10
2023-05-19T03:58:39.417Z,10.10
2023-05-19T04:01:07.607Z,10.10
2023-05-19T04:03:35.934Z,10.10
2023-05-19T04:06:04.181Z,10.20
2023-05-19T04:08:32.552Z,10.20
2023-05-19T04:11:00.716Z,10.20
2023-05-19T04:13:28.990Z,10.20
2023-05-19T04:15:58.657Z,10.10
2023-05-19T04:18:28.939Z,10.30
2023-05-19T04:20:57.443Z,10.30
2023-05-19T04:23:25.691Z,10.40
2023-05-19T04:25:54.461Z,10.40
2023-05-19T04:28:23.968Z,10.30
2023-05-19T04:30:52.237Z,10.30
2023-05-19T04:33:21.938Z,10.30
2023-05-19T04:35:50.532Z,10.30
2023-05-19T04:38:20.305Z,10.40
2023-05-19T04:40:50.245Z,10.40
2023-05-19T04:43:19.383Z,10.40
2023-05-19T04:45:50.285Z,10.50
2023-05-19T04:48:19.132Z,10.50
2023-05-19T04:50:48.970Z,10.50
2023-05-19T04:53:17.822Z,10.50
2023-05-19T04:55:46.662Z,10.70
2023-05-19T04:58:14.856Z,10.70
2023-05-19T05:00:44.200Z,10.70
2023-05-19T05:03:14.763Z,10.70
2023-05-19T05:05:42.978Z,10.80
2023-05-19T05:08:15.153Z,10.80
2023-05-19T05:10:43.633Z,10.80
2023-05-19T05:13:12.441Z,10.80
2023-05-19T05:15:41.083Z,10.80
2023-05-19T05:18:10.175Z,11.00
2023-05-19T05:20:39.340Z,11.00
2023-05-19T05:23:09.582Z,11.00
2023-05-19T05:25:39.947Z,11.10
2023-05-19T05:28:08.236Z,11.20
2023-05-19T05:30:36.997Z,11.30
2023-05-19T05:33:06.374Z,11.40
2023-05-19T05:35:34.882Z,11.50
2023-05-19T05:38:03.931Z,11.70
2023-05-19T05:40:32.322Z,11.80
2023-05-19T05:43:01.903Z,12.00
2023-05-19T05:45:30.335Z,12.20
2023-05-19T05:47:59.201Z,12.30
2023-05-19T05:50:28.283Z,12.60
2023-05-19T05:52:58.847Z,12.80
2023-05-19T05:55:27.896Z,13.00
2023-05-19T05:57:56.958Z,13.20
2023-05-19T06:00:28.344Z,13.40
2023-05-19T06:02:57.320Z,13.70
2023-05-19T06:05:26.030Z,13.90
2023-05-19T06:07:54.254Z,13.90
2023-05-19T06:10:22.623Z,14.10
2023-05-19T06:12:51.000Z,14.20
2023-05-19T06:15:19.425Z,14.50
2023-05-19T06:17:49.189Z,14.80
2023-05-19T06:20:17.421Z,15.10
2023-05-19T06:22:45.634Z,15.30
2023-05-19T06:25:14.051Z,15.40
2023-05-19T06:27:42.830Z,15.60
2023-05-19T06:30:11.515Z,15.60
2023-05-19T06:32:39.710Z,15.60
2023-05-19T06:35:09.862Z,15.70
2023-05-19T06:37:38.042Z,15.90
2023-05-19T06:40:07.243Z,16.10
2023-05-19T06:42:35.582Z,16.20
2023-05-19T06:45:03.864Z,16.30
2023-05-19T06:47:32.114Z,16.30
2023-05-19T06:50:00.367Z,16.30
2023-05-19T06:52:29.968Z,16.40
2023-05-19T06:54:58.168Z,16.40
2023-05-19T06:57:26.324Z,16.60
2023-05-19T06:59:54.508Z,17.00
2023-05-19T07:02:22.706Z,16.80
2023-05-19T07:04:52.752Z,16.80
2023-05-19T07:07:20.968Z,16.60
2023-05-19T07:09:50.616Z,16.80
2023-05-19T07:12:19.078Z,17.20
2023-05-19T07:14:47.262Z,17.80
2023-05-19T07:17:15.959Z,18.40
2023-05-19T07:19:44.187Z,19.30
2023-05-19T07:22:12.394Z,19.60
2023-05-19T07:24:40.824Z,19.70
2023-05-19T07:27:10.930Z,19.80
2023-05-19T07:29:39.129Z,19.80
2023-05-19T07:32:08.185Z,19.80
2023-05-19T07:34:36.832Z,19.90
2023-05-19T07:37:05.273Z,20.40
2023-05-19T07:39:33.474Z,21.10
2023-05-19T07:42:01.939Z,21.50
2023-05-19T07:44:32.332Z,21.70
2023-05-19T07:47:00.775Z,21.90
2023-05-19T07:49:29.519Z,21.80
2023-05-19T07:51:58.218Z,21.80
2023-05-19T07:54:26.452Z,22.00
2023-05-19T07:56:54.653Z,22.60
2023-05-19T07:59:22.968Z,22.70
2023-05-19T08:01:52.553Z,22.20
2023-05-19T08:04:20.828Z,21.70
2023-05-19T08:06:49.057Z,21.60
2023-05-19T08:09:17.261Z,21.90
2023-05-19T08:11:46.928Z,22.70
2023-05-19T08:14:15.163Z,23.40
2023-05-19T08:16:43.961Z,24.10
2023-05-19T08:19:13.652Z,24.10
2023-05-19T08:21:42.377Z,23.90
2023-05-19T08:24:10.618Z,23.20
2023-05-19T08:26:38.830Z,23.00
2023-05-19T08:29:07.066Z,22.90
2023-05-19T08:31:35.282Z,23.60
2023-05-19T08:34:03.552Z,24.10
2023-05-19T08:36:33.945Z,25.00
2023-05-19T08:39:02.164Z,25.80
2023-05-19T08:41:30.396Z,25.50
2023-05-19T08:43:58.606Z,25.70
2023-05-19T08:46:27.826Z,25.50
2023-05-19T08:49:00.130Z,25.90
2023-05-19T08:51:40.251Z,25.70
2023-05-19T08:54:15.798Z,25.60
2023-05-19T08:56:45.582Z,25.00
2023-05-19T08:59:15.299Z,24.70
2023-05-19T09:01:46.454Z,24.00
2023-05-19T09:04:15.344Z,23.80
2023-05-19T09:06:45.323Z,23.40
2023-05-19T09:09:13.797Z,23.40
2023-05-19T09:11:42.210Z,23.30
2023-05-19T09:14:10.411Z,23.30
2023-05-19T09:16:38.951Z,23.40
2023-05-19T09:19:08.802Z,23.40
2023-05-19T09:21:37.495Z,23.10
2023-05-19T09:24:08.660Z,22.90
2023-05-19T09:26:40.754Z,22.50
2023-05-19T09:29:15.657Z,22.50
2023-05-19T09:31:51.212Z,22.40
2023-05-19T09:34:19.621Z,22.30
2023-05-19T09:36:49.573Z,22.10
2023-05-19T09:39:20.379Z,22.20
2023-05-19T09:41:48.823Z,22.10
2023-05-19T09:44:23.783Z,22.20
2023-05-19T09:46:53.087Z,22.30
2023-05-19T09:49:22.887Z,22.40
2023-05-19T09:51:52.372Z,22.50
2023-05-19T09:54:23.743Z,22.60
2023-05-19T09:56:58.737Z,22.50
2023-05-19T09:59:29.738Z,22.60
2023-05-19T10:02:01.026Z,22.60
2023-05-19T10:04:31.023Z,22.40
2023-05-19T10:07:00.570Z,22.40
2023-05-19T10:09:30.940Z,22.30
2023-05-19T10:12:00.210Z,22.10
2023-05-19T10:14:29.438Z,22.00
2023-05-19T10:16:59.886Z,21.60
2023-05-19T10:19:29.648Z,21.30
2023-05-19T10:21:58.122Z,21.20
2023-05-19T10:24:26.741Z,21.20
2023-05-19T10:26:59.640Z,21.30
2023-05-19T10:29:31.725Z,21.30
2023-05-19T10:32:06.003Z,21.30
2023-05-19T10:35:04.008Z,21.10
2023-05-19T10:37:42.922Z,21.10
2023-05-19T10:40:20.263Z,21.20
2023-05-19T10:43:01.403Z,21.10
2023-05-19T10:45:35.934Z,21.00
2023-05-19T10:48:04.716Z,20.90
2023-05-19T10:50:37.874Z,20.80
2023-05-19T10:53:06.117Z,20.70
2023-05-19T10:55:48.713Z,20.80
2023-05-19T10:58:39.233Z,20.60
2023-05-19T11:01:14.251Z,20.70
2023-05-19T11:03:52.128Z,20.80
2023-05-19T11:06:27.668Z,20.80
2023-05-19T11:09:01.463Z,20.90
2023-05-19T11:11:45.920Z,21.10
2023-05-19T11:14:17.365Z,21.10
2023-05-19T11:16:48.085Z,21.10
2023-05-19T11:19:21.396Z,21.10
2023-05-19T11:21:50.897Z,21.20
2023-05-19T11:24:40.078Z,21.00
2023-05-19T11:27:28.501Z,20.60
2023-05-19T11:29:59.331Z,20.30
2023-05-19T11:32:30.990Z,19.80
2023-05-19T11:34:59.535Z,19.80
2023-05-19T11:37:28.960Z,20.00
2023-05-19T11:39:57.163Z,20.20
2023-05-19T11:42:25.476Z,20.40
2023-05-19T11:44:57.992Z,20.50
2023-05-19T11:47:26.968Z,20.70
2023-05-19T11:49:56.686Z,20.60
2023-05-19T11:52:25.614Z,20.70
2023-05-19T11:54:53.848Z,20.80
2023-05-19T11:57:22.551Z,20.80
2023-05-19T11:59:52.444Z,21.00
2023-05-19T12:02:24.932Z,21.20
2023-05-19T12:04:53.901Z,21.60
2023-05-19T12:07:24.115Z,21.80
2023-05-19T12:09:53.684Z,21.90
2023-05-19T12:12:23.165Z,22.20
2023-05-19T12:14:52.556Z,22.60
2023-05-19T12:17:24.199Z,23.10
2023-05-19T12:19:52.776Z,23.30
2023-05-19T12:22:21.214Z,23.50
2023-05-19T12:24:50.175Z,23.50
2023-05-19T12:27:20.573Z,23.40
2023-05-19T12:29:52.326Z,23.50
2023-05-19T12:32:25.543Z,23.40
2023-05-19T12:34:54.182Z,23.40
2023-05-19T12:37:22.784Z,23.40
2023-05-19T12:39:51.866Z,23.00
2023-05-19T12:42:20.744Z,22.80
2023-05-19T12:44:51.679Z,22.20
2023-05-19T12:47:22.369Z,22.20
2023-05-19T12:49:57.920Z,22.10
2023-05-19T12:52:26.974Z,22.10
2023-05-19T12:55:00.571Z,22.10
2023-05-19T12:57:29.698Z,22.00
2023-05-19T13:00:02.364Z,22.00
2023-05-19T13:02:32.237Z,22.00
2023-05-19T13:05:00.547Z,21.80
2023-05-19T13:07:28.894Z,21.70
2023-05-19T13:09:57.276Z,21.40
2023-05-19T13:12:26.227Z,21.10
2023-05-19T13:14:55.772Z,21.20
2023-05-19T13:17:24.753Z,21.40
2023-05-19T13:19:54.436Z,21.70
2023-05-19T13:22:22.771Z,21.80
2023-05-19T13:24:51.115Z,21.90
2023-05-19T13:27:19.342Z,22.00
2023-05-19T13:29:47.533Z,22.00
2023-05-19T13:32:15.864Z,22.00
2023-05-19T13:34:44.012Z,22.00
2023-05-19T13:37:13.692Z,21.80
2023-05-19T13:39:41.948Z,21.50
2023-05-19T13:42:10.203Z,21.00
2023-05-19T13:44:38.436Z,20.90
2023-05-19T13:47:06.911Z,20.70
2023-05-19T13:49:35.210Z,20.60
2023-05-19T13:52:03.530Z,20.40
2023-05-19T13:54:33.811Z,20.20
2023-05-19T13:57:02.111Z,20.10
2023-05-19T13:59:30.974Z,19.90
2023-05-19T14:01:59.184Z,19.80
2023-05-19T14:04:27.410Z,19.60
2023-05-19T14:06:55.971Z,19.50
2023-05-19T14:09:24.596Z,19.40
2023-05-19T14:11:54.206Z,19.40
2023-05-19T14:14:22.828Z,19.30
2023-05-19T14:16:51.083Z,19.30
2023-05-19T14:19:19.392Z,19.20
2023-05-19T14:21:47.614Z,19.20
2023-05-19T14:24:15.840Z,19.20
2023-05-19T14:26:44.050Z,19.20
2023-05-19T14:29:14.091Z,19.10
2023-05-19T14:31:42.384Z,19.10
2023-05-19T14:34:10.652Z,19.10
2023-05-19T14:36:38.862Z,19.00
2023-05-19T14:39:07.045Z,19.00
2023-05-19T14:41:35.228Z,19.00
2023-05-19T14:44:03.471Z,18.90
2023-05-19T14:46:33.344Z,18.90
2023-05-19T14:49:01.603Z,19.00
2023-05-19T14:51:29.780Z,18.90
2023-05-19T14:53:58.074Z,18.90
2023-05-19T14:56:26.748Z,18.80
2023-05-19T14:58:54.956Z,18.80
2023-05-19T15:01:23.269Z,18.80
2023-05-19T15:03:53.086Z,18.80
2023-05-19T15:06:21.481Z,18.80
2023-05-19T15:08:49.716Z,18.80
2023-05-19T15:11:17.945Z,18.70
2023-05-19T15:13:46.174Z,18.70
2023-05-19T15:16:16.753Z,18.60
2023-05-19T15:18:46.575Z,18.50
2023-05-19T15:21:16.158Z,18.40
2023-05-19T15:23:44.365Z,18.30
2023-05-19T15:26:12.619Z,18.30
2023-05-19T15:28:40.920Z,18.30
2023-05-19T15:31:09.152Z,18.20
2023-05-19T15:33:37.440Z,18.20
2023-05-19T15:36:06.147Z,18.10
2023-05-19T15:38:37.526Z,18.00
2023-05-19T15:41:08.983Z,17.80
2023-05-19T15:43:36.962Z,17.80
2023-05-19T15:46:05.333Z,17.70
2023-05-19T15:48:33.820Z,17.70
2023-05-19T15:51:02.120Z,17.60
2023-05-19T15:53:30.373Z,17.50
2023-05-19T15:56:00.334Z,17.40
2023-05-19T15:58:29.682Z,17.30
2023-05-19T16:00:58.031Z,17.30
2023-05-19T16:03:26.397Z,17.40
2023-05-19T16:05:54.970Z,17.30
2023-05-19T16:08:23.169Z,17.10
2023-05-19T16:10:51.535Z,17.00
2023-05-19T16:13:21.107Z,16.90
2023-05-19T16:15:49.509Z,16.80
2023-05-19T16:18:17.790Z,16.70
2023-05-19T16:20:46.167Z,16.60
2023-05-19T16:23:14.375Z,16.50
2023-05-19T16:25:42.648Z,16.50
2023-05-19T16:28:10.854Z,16.40
2023-05-19T16:30:40.478Z,16.30
2023-05-19T16:33:08.774Z,16.20
2023-05-19T16:35:37.379Z,16.10
2023-05-19T16:38:05.620Z,16.10
2023-05-19T16:40:34.017Z,16.10
2023-05-19T16:43:02.400Z,16.10
2023-05-19T16:45:30.651Z,16.10
2023-05-19T16:48:00.397Z,16.10
2023-05-19T16:50:28.663Z,16.10
2023-05-19T16:52:56.931Z,16.10
2023-05-19T16:55:26.735Z,16.10
2023-05-19T16:57:55.084Z,16.10
2023-05-19T17:00:23.490Z,16.10
2023-05-19T17:02:51.772Z,16.10
2023-05-19T17:05:21.383Z,16.10
2023-05-19T17:07:49.596Z,16.00
2023-05-19T17:10:17.906Z,16.00
2023-05-19T17:12:46.130Z,16.00
2023-05-19T17:15:15.387Z,15.90
2023-05-19T17:17:43.615Z,15.90
2023-05-19T17:20:13.409Z,15.90
2023-05-19T17:22:43.027Z,15.90
2023-05-19T17:25:11.800Z,15.90
2023-05-19T17:27:40.101Z,15.90
2023-05-19T17:30:09.934Z,15.90
2023-05-19T17:32:39.466Z,15.90
2023-05-19T17:35:08.884Z,15.90
2023-05-19T17:37:37.281Z,15.80
2023-05-19T17:40:08.354Z,15.80
2023-05-19T17:42:36.529Z,15.80
2023-05-19T17:45:07.658Z,15.80
2023-05-19T17:47:35.904Z,15.80
2023-05-19T17:50:04.302Z,15.80
2023-05-19T17:52:33.106Z,15.80
2023-05-19T17:55:01.962Z,15.80
2023-05-19T17:57:33.178Z,15.80
2023-05-19T18:00:03.002Z,15.80
2023-05-19T18:02:31.742Z,15.80
2023-05-19T18:05:00.661Z,15.80
2023-05-19T18:07:30.268Z,15.80
2023-05-19T18:10:01.514Z,15.80
2023-05-19T18:12:31.206Z,15.70
2023-05-19T18:14:59.515Z,15.70
2023-05-19T18:17:27.895Z,15.70
2023-05-19T18:19:56.294Z,15.70
2023-05-19T18:22:24.487Z,15.70
2023-05-19T18:24:53.026Z,15.70
2023-05-19T18:27:21.193Z,15.60
2023-05-19T18:29:50.811Z,15.60
2023-05-19T18:32:19.040Z,15.50
2023-05-19T18:34:47.276Z,15.50
2023-05-19T18:37:15.476Z,15.50
2023-05-19T18:39:43.719Z,15.50
2023-05-19T18:42:12.085Z,15.50
2023-05-19T18:44:40.242Z,15.50
2023-05-19T18:47:09.958Z,15.50
2023-05-19T18:49:38.148Z,15.50
2023-05-19T18:52:06.998Z,15.40
2023-05-19T18:54:35.322Z,15.30
2023-05-19T18:57:03.608Z,15.30
2023-05-19T18:59:31.877Z,15.30
2023-05-19T19:02:00.109Z,15.30
2023-05-19T19:04:29.798Z,15.20
2023-05-19T19:06:58.037Z,15.20
2023-05-19T19:09:26.220Z,15.20
2023-05-19T19:11:54.413Z,15.20
2023-05-19T19:14:22.644Z,15.20
2023-05-19T19:16:50.953Z,15.10
2023-05-19T19:19:19.256Z,15.10
2023-05-19T19:21:48.955Z,15.10
2023-05-19T19:24:17.121Z,15.00
2023-05-19T19:26:45.352Z,15.00
2023-05-19T19:29:13.683Z,15.00
2023-05-19T19:31:41.930Z,15.00
2023-05-19T19:34:11.264Z,15.00
2023-05-19T19:36:39.532Z,14.80
2023-05-19T19:39:09.521Z,14.80
2023-05-19T19:41:37.723Z,14.90
2023-05-19T19:44:06.482Z,14.90
2023-05-19T19:46:35.184Z,14.80
2023-05-19T19:49:03.465Z,14.80
2023-05-19T19:51:32.389Z,14.80
2023-05-19T19:54:00.635Z,14.80
2023-05-19T19:56:30.189Z,14.80
2023-05-19T19:58:59.212Z,14.80
2023-05-19T20:01:28.185Z,14.80
2023-05-19T20:03:57.488Z,14.70
2023-05-19T20:06:26.099Z,14.70
2023-05-19T20:08:54.356Z,14.70
2023-05-19T20:11:24.277Z,14.70
2023-05-19T20:13:54.176Z,14.70
2023-05-19T20:16:24.206Z,14.70
2023-05-19T20:18:52.589Z,14.60
2023-05-19T20:21:20.843Z,14.60
2023-05-19T20:23:50.459Z,14.60
2023-05-19T20:26:18.772Z,14.50
2023-05-19T20:28:46.970Z,14.50
2023-05-19T20:31:16.581Z,14.50
2023-05-19T20:33:44.794Z,14.50
2023-05-19T20:36:13.016Z,14.40
2023-05-19T20:38:41.180Z,14.40
2023-05-19T20:41:09.517Z,14.30
2023-05-19T20:43:37.763Z,14.30
2023-05-19T20:46:06.135Z,14.20
2023-05-19T20:48:36.004Z,14.20
2023-05-19T20:51:04.241Z,14.20
2023-05-19T20:53:32.463Z,14.10
2023-05-19T20:56:00.762Z,14.10
2023-05-19T20:58:30.335Z,14.10
2023-05-19T21:00:58.662Z,14.00
2023-05-19T21:03:27.355Z,14.00
2023-05-19T21:05:57.157Z,14.00
2023-05-19T21:08:25.697Z,14.00
2023-05-19T21:10:53.869Z,13.90
2023-05-19T21:13:22.089Z,13.90
2023-05-19T21:15:50.330Z,13.90
2023-05-19T21:18:18.549Z,13.90
2023-05-19T21:20:46.831Z,13.90
2023-05-19T21:23:16.409Z,13.90
2023-05-19T21:25:45.404Z,13.90
2023-05-19T21:28:13.816Z,13.90
2023-05-19T21:30:42.042Z,14.00
2023-05-19T21:33:10.298Z,14.00
2023-05-19T21:35:38.784Z,14.00
2023-05-19T21:38:22.100Z,14.00
2023-05-19T21:40:53.121Z,13.90
2023-05-19T21:43:21.873Z,13.80
2023-05-19T21:45:50.129Z,13.90
2023-05-19T21:48:18.390Z,13.90
2023-05-19T21:50:46.809Z,13.90
2023-05-19T21:53:14.986Z,13.90
2023-05-19T21:55:43.190Z,13.90
2023-05-19T21:58:12.824Z,13.80
2023-05-19T22:00:41.043Z,13.80
2023-05-19T22:03:09.400Z,13.80
2023-05-19T22:05:38.546Z,13.90
2023-05-19T22:08:06.831Z,13.90
2023-05-19T22:10:37.090Z,13.90
2023-05-19T22:13:05.554Z,14.00
2023-05-19T22:15:35.244Z,14.00
2023-05-19T22:18:03.556Z,14.00
2023-05-19T22:20:32.020Z,14.10
2023-05-19T22:23:01.288Z,14.10
2023-05-19T22:25:29.491Z,14.10
2023-05-19T22:27:57.761Z,14.10
2023-05-19T22:30:26.191Z,14.10
2023-05-19T22:32:55.851Z,14.10
2023-05-19T22:35:24.338Z,14.10
2023-05-19T22:37:52.573Z,14.10
2023-05-19T22:40:20.901Z,14.10
2023-05-19T22:42:49.134Z,14.10
2023-05-19T22:45:17.342Z,13.90
2023-05-19T22:47:45.548Z,13.80
2023-05-19T22:50:16.645Z,13.80
2023-05-19T22:52:44.836Z,13.80
2023-05-19T22:55:13.079Z,13.80
2023-05-19T22:57:41.243Z,13.80
2023-05-19T23:00:10.529Z,13.70
2023-05-19T23:02:38.728Z,13.70
2023-05-19T23:05:07.712Z,13.70
2023-05-19T23:07:37.278Z,13.70
2023-05-19T23:10:07.560Z,13.60
2023-05-19T23:12:35.839Z,13.60
2023-05-19T23:15:04.196Z,13.50
2023-05-19T23:17:32.417Z,13.50
2023-05-19T23:20:00.630Z,13.40
2023-05-19T23:22:28.881Z,13.40
2023-05-19T23:24:58.687Z,13.50
2023-05-19T23:27:27.080Z,13.40
2023-05-19T23:29:55.256Z,13.40
2023-05-19T23:32:23.607Z,13.40
2023-05-19T23:34:51.937Z,13.40
2023-05-19T23:37:20.172Z,13.40
2023-05-19T23:39:48.337Z,13.30
2023-05-19T23:42:17.910Z,13.20
2023-05-19T23:44:46.140Z,13.20
2023-05-19T23:47:14.337Z,13.10
2023-05-19T23:49:42.499Z,13.10
2023-05-19T23:52:10.723Z,13.00
2023-05-19T23:54:38.903Z,12.80
2023-05-19T23:57:08.910Z,12.80
2023-05-19T23:59:38.567Z,12.70
